KHNB/HNB METAR and TAF weather

Enter ICAO airport designator
Station Type Date Time Source
KHNB METAR 2019/12/10 05:56 UTC NOAA

KHNB 100556Z AUTO 30013KT 10SM BKN019 OVC029 04/01 A2992 RMK AO2 SLP133 T00390011 10144 20039 51047


Station Type Date Time Source
KHNB Decoded METAR 2019/12/10 05:56 UTC NOAA

Huntingburg, IN, United States (KHNB) 38-15N 086-57W
Dec 10, 2019 - 12:56 AM EST / 2019.12.10 0556 UTC
Wind: from the WNW (300 degrees) at 15 MPH (13 KT):0
Visibility: 10 mile(s):0
Sky conditions: overcast
Temperature: 39.0 F (3.9 C)
Dew Point: 34.0 F (1.1 C)
Relative Humidity: 81%
Pressure (altimeter): 29.92 in. Hg (1013 hPa)
Pressure tendency: 0.14 inches (4.7 hPa) higher than three hours ago
ob: KHNB 100556Z AUTO 30013KT 10SM BKN019 OVC029 04/01 A2992 RMK AO2 SLP133 T00390011 10144 20039 51047
cycle: 6

Station Type Date Time Source
KHNB TAF 2019/12/10 06:33 UTC NOAA

TAF KHNB 100530Z 1006/1106 30013G24KT P6SM OVC021
FM100900 30013G20KT P6SM BKN070
FM101200 30008KT P6SM OVC180

Example: see airport list